Auburn Hills, MI

12:29 AM EDT on March 30, 2015 (GMT -0400)
2 mi SE of the Palace | | Change Station
CLOSE
Current Station
Personal Weather Station
Location: Auburn Hills, MI
Elevation: 950 ft
Nearby Weather Stations

Elev 950 ft 42.67 °N, 83.23 °W | Updated 6 seconds ago

Overcast
Overcast
36.9 °F
Feels Like 32 °F
N
6.2
Wind Variable Wind from SW
Gusts 12.3 mph

Today
High -- | Low -- °F
--% Chance of Precip.
Yesterday
High -- | Low -- °F
Precip. -- in
7:19 AM 7:56 PM
Waxing Gibbous, 76% visible
Pressure 29.68 in
Visibility 4.0 miles
Clouds Overcast 1200 ft
Windchill 32 °F
Dew Point 31 °F
Humidity 80%
Rainfall 0.00 in
Snow Depth Not available.
UV 0 out of 12
Pollen 5.90 out of 12
Air Quality Not available.
Flu Activity Not available.
SPECI KPTK 300406Z AUTO 22010G18KT 4SM -RA BR OVC012 03/01 A2968 RMK AO2 P0000 T00280011 TSNO $

More Conditions Fewer Conditions

Pressure 29.68 in
Visibility 4.0 miles
Clouds Overcast 1200 ft
Windchill 32 °F
Dew Point 31 °F
Humidity 80%
Rainfall 0.00 in
Snow Depth Not available.
UV 0 out of 12
Pollen 5.90 out of 12
Air Quality Not available.
Flu Activity Not available.
SPECI KPTK 300406Z AUTO 22010G18KT 4SM -RA BR OVC012 03/01 A2968 RMK AO2 P0000 T00280011 TSNO $

More Conditions Fewer Conditions

10-Day Weather Forecast

Almanac

Astronomy

Mar. 30, 2015 Rise Set
Actual Time
Civil Twilight
Nautical Twilight
Astronomical Twilight
Moon
Length of Visible Light
Length of Day
Tomorrow will be .
, % of the Moon is Illuminated

Today's Extremes

State Highs State Lows

Community

WunderPhotos

Upload Photos

1,809,433 photos uploaded!

WunderBlogs® & News

Nearby

Air Quality

  Air Quality AQ Index Pollutant
Not available.

Snow Depth

Station Depth Elevation

Earthquake Activity

City Distance Mag. Time & Date
Minimum magnitude displayed is 2.5.

Coastal Water Temperatures

Place Temperature

Stations

Nearby Weather Stations

Station Location Temp. Windchill Dew Point Humidity Wind Precip. Elev Updated Type